sensor_id;sensor_type;location;lat;lon;timestamp;temperature;humidity
52859;DHT22;38721;53.098;6.596;2024-03-17T00:01:20;3.80;99.90
52859;DHT22;38721;53.098;6.596;2024-03-17T00:03:46;3.70;99.90
52859;DHT22;38721;53.098;6.596;2024-03-17T00:06:12;3.60;99.90
52859;DHT22;38721;53.098;6.596;2024-03-17T00:08:37;3.70;99.90
52859;DHT22;38721;53.098;6.596;2024-03-17T00:11:03;3.70;99.90
52859;DHT22;38721;53.098;6.596;2024-03-17T00:13:29;3.60;99.90
52859;DHT22;38721;53.098;6.596;2024-03-17T00:15:55;3.60;99.90
52859;DHT22;38721;53.098;6.596;2024-03-17T00:18:20;3.60;99.90
52859;DHT22;38721;53.098;6.596;2024-03-17T00:20:46;3.50;99.90
52859;DHT22;38721;53.098;6.596;2024-03-17T00:23:12;3.50;99.90
52859;DHT22;38721;53.098;6.596;2024-03-17T00:25:38;3.40;99.90
52859;DHT22;38721;53.098;6.596;2024-03-17T00:28:04;3.40;99.90
52859;DHT22;38721;53.098;6.596;2024-03-17T00:30:30;3.50;99.90
52859;DHT22;38721;53.098;6.596;2024-03-17T00:32:57;3.40;99.90
52859;DHT22;38721;53.098;6.596;2024-03-17T00:35:23;3.30;99.90
52859;DHT22;38721;53.098;6.596;2024-03-17T00:37:50;3.30;99.90
52859;DHT22;38721;53.098;6.596;2024-03-17T00:40:17;3.30;99.90
52859;DHT22;38721;53.098;6.596;2024-03-17T00:42:43;3.30;99.90
52859;DHT22;38721;53.098;6.596;2024-03-17T00:45:12;3.30;99.90
52859;DHT22;38721;53.098;6.596;2024-03-17T00:47:39;3.20;99.90
52859;DHT22;38721;53.098;6.596;2024-03-17T00:50:05;3.00;99.90
52859;DHT22;38721;53.098;6.596;2024-03-17T00:52:34;3.00;99.90
52859;DHT22;38721;53.098;6.596;2024-03-17T00:55:00;2.90;99.90
52859;DHT22;38721;53.098;6.596;2024-03-17T00:57:26;2.80;99.90
52859;DHT22;38721;53.098;6.596;2024-03-17T00:59:52;2.80;99.90
52859;DHT22;38721;53.098;6.596;2024-03-17T01:02:18;2.90;99.90
52859;DHT22;38721;53.098;6.596;2024-03-17T01:04:45;2.70;99.90
52859;DHT22;38721;53.098;6.596;2024-03-17T01:07:11;2.70;99.90
52859;DHT22;38721;53.098;6.596;2024-03-17T01:09:37;2.60;99.90
52859;DHT22;38721;53.098;6.596;2024-03-17T01:12:04;2.70;99.90
52859;DHT22;38721;53.098;6.596;2024-03-17T01:14:30;2.70;99.90
52859;DHT22;38721;53.098;6.596;2024-03-17T01:16:57;2.50;99.90
52859;DHT22;38721;53.098;6.596;2024-03-17T01:19:23;2.50;99.90
52859;DHT22;38721;53.098;6.596;2024-03-17T01:21:50;2.40;99.90
52859;DHT22;38721;53.098;6.596;2024-03-17T01:24:17;2.40;99.90
52859;DHT22;38721;53.098;6.596;2024-03-17T01:26:43;2.40;99.90
52859;DHT22;38721;53.098;6.596;2024-03-17T01:29:08;2.40;99.90
52859;DHT22;38721;53.098;6.596;2024-03-17T01:31:34;2.40;99.90
52859;DHT22;38721;53.098;6.596;2024-03-17T01:34:00;2.40;99.90
52859;DHT22;38721;53.098;6.596;2024-03-17T01:36:26;2.40;99.90
52859;DHT22;38721;53.098;6.596;2024-03-17T01:38:52;2.30;99.90
52859;DHT22;38721;53.098;6.596;2024-03-17T01:41:18;2.30;99.90
52859;DHT22;38721;53.098;6.596;2024-03-17T01:43:43;2.30;99.90
52859;DHT22;38721;53.098;6.596;2024-03-17T01:46:14;2.20;99.90
52859;DHT22;38721;53.098;6.596;2024-03-17T01:48:40;2.20;99.90
52859;DHT22;38721;53.098;6.596;2024-03-17T01:51:07;2.20;99.90
52859;DHT22;38721;53.098;6.596;2024-03-17T01:53:34;2.10;99.90
52859;DHT22;38721;53.098;6.596;2024-03-17T01:56:00;2.20;99.90
52859;DHT22;38721;53.098;6.596;2024-03-17T01:58:30;2.10;99.90
52859;DHT22;38721;53.098;6.596;2024-03-17T02:00:57;2.00;99.90
52859;DHT22;38721;53.098;6.596;2024-03-17T02:03:23;2.00;99.90
52859;DHT22;38721;53.098;6.596;2024-03-17T02:05:49;2.20;99.90
52859;DHT22;38721;53.098;6.596;2024-03-17T02:08:14;2.00;99.90
52859;DHT22;38721;53.098;6.596;2024-03-17T02:10:41;2.10;99.90
52859;DHT22;38721;53.098;6.596;2024-03-17T02:13:07;2.20;99.90
52859;DHT22;38721;53.098;6.596;2024-03-17T02:15:33;2.00;99.90
52859;DHT22;38721;53.098;6.596;2024-03-17T02:17:59;2.00;99.90
52859;DHT22;38721;53.098;6.596;2024-03-17T02:20:25;1.90;99.90
52859;DHT22;38721;53.098;6.596;2024-03-17T02:23:11;2.00;99.90
52859;DHT22;38721;53.098;6.596;2024-03-17T02:25:40;2.00;99.90
52859;DHT22;38721;53.098;6.596;2024-03-17T02:28:06;1.90;99.90
52859;DHT22;38721;53.098;6.596;2024-03-17T02:30:31;1.90;99.90
52859;DHT22;38721;53.098;6.596;2024-03-17T02:32:57;1.90;99.90
52859;DHT22;38721;53.098;6.596;2024-03-17T02:35:24;1.90;99.90
52859;DHT22;38721;53.098;6.596;2024-03-17T02:37:50;1.80;99.90
52859;DHT22;38721;53.098;6.596;2024-03-17T02:40:16;1.90;99.90
52859;DHT22;38721;53.098;6.596;2024-03-17T02:42:42;1.90;99.90
52859;DHT22;38721;53.098;6.596;2024-03-17T02:45:11;1.90;99.90
52859;DHT22;38721;53.098;6.596;2024-03-17T02:47:38;1.80;99.90
52859;DHT22;38721;53.098;6.596;2024-03-17T02:50:04;1.90;99.90
52859;DHT22;38721;53.098;6.596;2024-03-17T02:52:30;2.00;99.90
52859;DHT22;38721;53.098;6.596;2024-03-17T02:54:56;2.00;99.90
52859;DHT22;38721;53.098;6.596;2024-03-17T02:57:23;2.10;99.90
52859;DHT22;38721;53.098;6.596;2024-03-17T02:59:55;2.00;99.90
52859;DHT22;38721;53.098;6.596;2024-03-17T03:02:22;2.20;99.90
52859;DHT22;38721;53.098;6.596;2024-03-17T03:04:48;2.10;99.90
52859;DHT22;38721;53.098;6.596;2024-03-17T03:07:13;2.30;99.90
52859;DHT22;38721;53.098;6.596;2024-03-17T03:09:42;2.20;99.90
52859;DHT22;38721;53.098;6.596;2024-03-17T03:12:08;2.20;99.90
52859;DHT22;38721;53.098;6.596;2024-03-17T03:14:34;2.20;99.90
52859;DHT22;38721;53.098;6.596;2024-03-17T03:17:00;2.30;99.90
52859;DHT22;38721;53.098;6.596;2024-03-17T03:19:26;2.30;99.90
52859;DHT22;38721;53.098;6.596;2024-03-17T03:21:52;2.40;99.90
52859;DHT22;38721;53.098;6.596;2024-03-17T03:24:18;2.50;99.90
52859;DHT22;38721;53.098;6.596;2024-03-17T03:26:44;2.40;99.90
52859;DHT22;38721;53.098;6.596;2024-03-17T03:29:10;2.50;99.90
52859;DHT22;38721;53.098;6.596;2024-03-17T03:31:36;2.50;99.90
52859;DHT22;38721;53.098;6.596;2024-03-17T03:34:04;2.50;99.90
52859;DHT22;38721;53.098;6.596;2024-03-17T03:36:33;2.70;99.90
52859;DHT22;38721;53.098;6.596;2024-03-17T03:38:59;2.60;99.90
52859;DHT22;38721;53.098;6.596;2024-03-17T03:41:25;2.70;99.90
52859;DHT22;38721;53.098;6.596;2024-03-17T03:43:51;2.70;99.90
52859;DHT22;38721;53.098;6.596;2024-03-17T03:46:17;2.80;99.90
52859;DHT22;38721;53.098;6.596;2024-03-17T03:48:43;2.80;99.90
52859;DHT22;38721;53.098;6.596;2024-03-17T03:51:09;2.80;99.90
52859;DHT22;38721;53.098;6.596;2024-03-17T03:53:36;2.80;99.90
52859;DHT22;38721;53.098;6.596;2024-03-17T03:56:04;2.90;99.90
52859;DHT22;38721;53.098;6.596;2024-03-17T03:58:38;3.00;99.90
52859;DHT22;38721;53.098;6.596;2024-03-17T04:01:09;3.00;99.90
52859;DHT22;38721;53.098;6.596;2024-03-17T04:03:37;3.00;99.90
52859;DHT22;38721;53.098;6.596;2024-03-17T04:06:07;3.10;99.90
52859;DHT22;38721;53.098;6.596;2024-03-17T04:08:34;3.20;99.90
52859;DHT22;38721;53.098;6.596;2024-03-17T04:11:00;3.20;99.90
52859;DHT22;38721;53.098;6.596;2024-03-17T04:13:30;3.20;99.90
52859;DHT22;38721;53.098;6.596;2024-03-17T04:15:57;3.30;99.90
52859;DHT22;38721;53.098;6.596;2024-03-17T04:18:27;3.40;99.90
52859;DHT22;38721;53.098;6.596;2024-03-17T04:21:00;3.40;99.90
52859;DHT22;38721;53.098;6.596;2024-03-17T04:23:26;3.50;99.90
52859;DHT22;38721;53.098;6.596;2024-03-17T04:25:52;3.50;99.90
52859;DHT22;38721;53.098;6.596;2024-03-17T04:28:21;3.60;99.90
52859;DHT22;38721;53.098;6.596;2024-03-17T04:30:47;3.70;99.90
52859;DHT22;38721;53.098;6.596;2024-03-17T04:33:13;3.80;99.90
52859;DHT22;38721;53.098;6.596;2024-03-17T04:35:40;3.70;99.90
52859;DHT22;38721;53.098;6.596;2024-03-17T04:38:07;3.70;99.90
52859;DHT22;38721;53.098;6.596;2024-03-17T04:40:35;3.80;99.90
52859;DHT22;38721;53.098;6.596;2024-03-17T04:43:05;3.90;99.90
52859;DHT22;38721;53.098;6.596;2024-03-17T04:45:31;3.90;99.90
52859;DHT22;38721;53.098;6.596;2024-03-17T04:47:57;3.80;99.90
52859;DHT22;38721;53.098;6.596;2024-03-17T04:50:23;3.80;99.90
52859;DHT22;38721;53.098;6.596;2024-03-17T04:52:49;3.80;99.90
52859;DHT22;38721;53.098;6.596;2024-03-17T04:55:16;3.90;99.90
52859;DHT22;38721;53.098;6.596;2024-03-17T04:57:47;3.90;99.90
52859;DHT22;38721;53.098;6.596;2024-03-17T05:00:13;4.00;99.90
52859;DHT22;38721;53.098;6.596;2024-03-17T05:02:40;4.00;99.90
52859;DHT22;38721;53.098;6.596;2024-03-17T05:05:08;4.00;99.90
52859;DHT22;38721;53.098;6.596;2024-03-17T05:07:36;4.00;99.90
52859;DHT22;38721;53.098;6.596;2024-03-17T05:10:02;3.90;99.90
52859;DHT22;38721;53.098;6.596;2024-03-17T05:12:28;4.00;99.90
52859;DHT22;38721;53.098;6.596;2024-03-17T05:14:54;4.00;99.90
52859;DHT22;38721;53.098;6.596;2024-03-17T05:17:20;3.90;99.90
52859;DHT22;38721;53.098;6.596;2024-03-17T05:19:45;4.00;99.90
52859;DHT22;38721;53.098;6.596;2024-03-17T05:22:11;4.10;99.90
52859;DHT22;38721;53.098;6.596;2024-03-17T05:24:37;4.00;99.90
52859;DHT22;38721;53.098;6.596;2024-03-17T05:27:03;4.00;99.90
52859;DHT22;38721;53.098;6.596;2024-03-17T05:29:29;4.00;99.90
52859;DHT22;38721;53.098;6.596;2024-03-17T05:31:55;4.10;99.90
52859;DHT22;38721;53.098;6.596;2024-03-17T05:34:21;4.10;99.90
52859;DHT22;38721;53.098;6.596;2024-03-17T05:36:50;4.00;99.90
52859;DHT22;38721;53.098;6.596;2024-03-17T05:39:16;4.10;99.90
52859;DHT22;38721;53.098;6.596;2024-03-17T05:41:42;4.00;99.90
52859;DHT22;38721;53.098;6.596;2024-03-17T05:44:09;4.20;99.90
52859;DHT22;38721;53.098;6.596;2024-03-17T05:46:35;4.10;99.90
52859;DHT22;38721;53.098;6.596;2024-03-17T05:49:01;4.20;99.90
52859;DHT22;38721;53.098;6.596;2024-03-17T05:51:26;4.20;99.90
52859;DHT22;38721;53.098;6.596;2024-03-17T05:53:53;4.20;99.90
52859;DHT22;38721;53.098;6.596;2024-03-17T05:56:21;4.20;99.90
52859;DHT22;38721;53.098;6.596;2024-03-17T05:58:48;4.20;99.90
52859;DHT22;38721;53.098;6.596;2024-03-17T06:01:14;4.30;99.90
52859;DHT22;38721;53.098;6.596;2024-03-17T06:03:40;4.30;99.90
52859;DHT22;38721;53.098;6.596;2024-03-17T06:06:07;4.20;99.90
52859;DHT22;38721;53.098;6.596;2024-03-17T06:08:33;4.20;99.90
52859;DHT22;38721;53.098;6.596;2024-03-17T06:10:59;4.30;99.90
52859;DHT22;38721;53.098;6.596;2024-03-17T06:13:26;4.30;99.90
52859;DHT22;38721;53.098;6.596;2024-03-17T06:15:52;4.30;99.90
52859;DHT22;38721;53.098;6.596;2024-03-17T06:18:18;4.40;99.90
52859;DHT22;38721;53.098;6.596;2024-03-17T06:20:45;4.30;99.90
52859;DHT22;38721;53.098;6.596;2024-03-17T06:23:11;4.40;99.90
52859;DHT22;38721;53.098;6.596;2024-03-17T06:25:48;4.50;99.90
52859;DHT22;38721;53.098;6.596;2024-03-17T06:28:15;4.50;99.90
52859;DHT22;38721;53.098;6.596;2024-03-17T06:30:47;4.60;99.90
52859;DHT22;38721;53.098;6.596;2024-03-17T06:33:19;4.70;99.90
52859;DHT22;38721;53.098;6.596;2024-03-17T06:35:46;4.80;99.90
52859;DHT22;38721;53.098;6.596;2024-03-17T06:38:14;5.00;99.90
52859;DHT22;38721;53.098;6.596;2024-03-17T06:40:41;5.00;99.90
52859;DHT22;38721;53.098;6.596;2024-03-17T06:43:07;5.20;99.90
52859;DHT22;38721;53.098;6.596;2024-03-17T06:45:33;5.30;99.90
52859;DHT22;38721;53.098;6.596;2024-03-17T06:47:59;5.40;99.90
52859;DHT22;38721;53.098;6.596;2024-03-17T06:50:25;5.50;99.90
52859;DHT22;38721;53.098;6.596;2024-03-17T06:52:51;5.60;99.90
52859;DHT22;38721;53.098;6.596;2024-03-17T06:55:20;5.60;99.90
52859;DHT22;38721;53.098;6.596;2024-03-17T06:57:50;5.80;99.90
52859;DHT22;38721;53.098;6.596;2024-03-17T07:00:16;6.00;99.90
52859;DHT22;38721;53.098;6.596;2024-03-17T07:02:49;6.00;99.90
52859;DHT22;38721;53.098;6.596;2024-03-17T07:05:15;6.10;99.90
52859;DHT22;38721;53.098;6.596;2024-03-17T07:07:44;6.20;99.90
52859;DHT22;38721;53.098;6.596;2024-03-17T07:10:11;6.30;99.90
52859;DHT22;38721;53.098;6.596;2024-03-17T07:12:41;6.30;99.90
52859;DHT22;38721;53.098;6.596;2024-03-17T07:15:08;6.40;99.90
52859;DHT22;38721;53.098;6.596;2024-03-17T07:17:34;6.50;99.90
52859;DHT22;38721;53.098;6.596;2024-03-17T07:20:00;6.70;99.90
52859;DHT22;38721;53.098;6.596;2024-03-17T07:22:26;6.70;99.90
52859;DHT22;38721;53.098;6.596;2024-03-17T07:24:52;6.90;99.90
52859;DHT22;38721;53.098;6.596;2024-03-17T07:27:26;7.00;99.90
52859;DHT22;38721;53.098;6.596;2024-03-17T07:29:52;7.20;99.90
52859;DHT22;38721;53.098;6.596;2024-03-17T07:32:17;7.20;99.90
52859;DHT22;38721;53.098;6.596;2024-03-17T07:34:43;7.30;99.90
52859;DHT22;38721;53.098;6.596;2024-03-17T07:37:09;7.30;99.90
52859;DHT22;38721;53.098;6.596;2024-03-17T07:39:35;7.50;99.90
52859;DHT22;38721;53.098;6.596;2024-03-17T07:42:01;7.40;99.90
52859;DHT22;38721;53.098;6.596;2024-03-17T07:44:28;7.50;99.90
52859;DHT22;38721;53.098;6.596;2024-03-17T07:47:01;7.60;99.90
52859;DHT22;38721;53.098;6.596;2024-03-17T07:49:30;7.60;99.90
52859;DHT22;38721;53.098;6.596;2024-03-17T07:51:55;7.70;99.90
52859;DHT22;38721;53.098;6.596;2024-03-17T07:54:26;7.70;99.90
52859;DHT22;38721;53.098;6.596;2024-03-17T07:56:52;7.60;99.90
52859;DHT22;38721;53.098;6.596;2024-03-17T07:59:18;7.70;99.90
52859;DHT22;38721;53.098;6.596;2024-03-17T08:01:44;7.70;99.90
52859;DHT22;38721;53.098;6.596;2024-03-17T08:04:11;7.80;99.90
52859;DHT22;38721;53.098;6.596;2024-03-17T08:06:38;7.90;99.90
52859;DHT22;38721;53.098;6.596;2024-03-17T08:09:04;7.90;99.90
52859;DHT22;38721;53.098;6.596;2024-03-17T08:11:30;7.90;99.90
52859;DHT22;38721;53.098;6.596;2024-03-17T08:13:56;8.00;99.90
52859;DHT22;38721;53.098;6.596;2024-03-17T08:16:22;8.00;99.90
52859;DHT22;38721;53.098;6.596;2024-03-17T08:18:47;8.10;99.90
52859;DHT22;38721;53.098;6.596;2024-03-17T08:21:13;8.20;99.90
52859;DHT22;38721;53.098;6.596;2024-03-17T08:23:39;8.20;99.90
52859;DHT22;38721;53.098;6.596;2024-03-17T08:26:07;8.30;99.90
52859;DHT22;38721;53.098;6.596;2024-03-17T08:28:34;8.40;99.90
52859;DHT22;38721;53.098;6.596;2024-03-17T08:31:01;8.40;99.90
52859;DHT22;38721;53.098;6.596;2024-03-17T08:33:27;8.50;99.90
52859;DHT22;38721;53.098;6.596;2024-03-17T08:36:04;8.60;99.90
52859;DHT22;38721;53.098;6.596;2024-03-17T08:38:31;8.60;99.90
52859;DHT22;38721;53.098;6.596;2024-03-17T08:41:01;8.60;99.90
52859;DHT22;38721;53.098;6.596;2024-03-17T08:43:28;8.70;99.90
52859;DHT22;38721;53.098;6.596;2024-03-17T08:45:58;8.80;99.90
52859;DHT22;38721;53.098;6.596;2024-03-17T08:48:26;8.90;99.90
52859;DHT22;38721;53.098;6.596;2024-03-17T08:50:53;9.10;99.90
52859;DHT22;38721;53.098;6.596;2024-03-17T08:53:19;9.30;99.90
52859;DHT22;38721;53.098;6.596;2024-03-17T08:55:46;9.20;99.90
52859;DHT22;38721;53.098;6.596;2024-03-17T08:58:12;9.50;99.90
52859;DHT22;38721;53.098;6.596;2024-03-17T09:00:38;9.60;99.90
52859;DHT22;38721;53.098;6.596;2024-03-17T09:03:04;9.70;1.00
52859;DHT22;38721;53.098;6.596;2024-03-17T09:05:32;9.80;99.90
52859;DHT22;38721;53.098;6.596;2024-03-17T09:07:59;9.90;7.30
52859;DHT22;38721;53.098;6.596;2024-03-17T09:10:24;10.00;1.00
52859;DHT22;38721;53.098;6.596;2024-03-17T09:12:50;10.20;1.00
52859;DHT22;38721;53.098;6.596;2024-03-17T09:15:16;10.40;43.40
52859;DHT22;38721;53.098;6.596;2024-03-17T09:17:42;10.40;1.00
52859;DHT22;38721;53.098;6.596;2024-03-17T09:20:11;10.40;99.90
52859;DHT22;38721;53.098;6.596;2024-03-17T09:22:38;10.60;99.90
52859;DHT22;38721;53.098;6.596;2024-03-17T09:25:09;10.50;99.90
52859;DHT22;38721;53.098;6.596;2024-03-17T09:27:36;10.80;99.90
52859;DHT22;38721;53.098;6.596;2024-03-17T09:30:05;10.90;99.90
52859;DHT22;38721;53.098;6.596;2024-03-17T09:32:38;10.80;99.90
52859;DHT22;38721;53.098;6.596;2024-03-17T09:35:05;11.00;1.00
52859;DHT22;38721;53.098;6.596;2024-03-17T09:37:31;11.20;99.90
52859;DHT22;38721;53.098;6.596;2024-03-17T09:39:58;11.30;99.90
52859;DHT22;38721;53.098;6.596;2024-03-17T09:42:26;11.40;57.50
52859;DHT22;38721;53.098;6.596;2024-03-17T09:44:55;11.40;1.00
52859;DHT22;38721;53.098;6.596;2024-03-17T09:47:23;11.50;1.00
52859;DHT22;38721;53.098;6.596;2024-03-17T09:49:50;11.60;1.00
52859;DHT22;38721;53.098;6.596;2024-03-17T09:52:21;11.60;99.90
52859;DHT22;38721;53.098;6.596;2024-03-17T09:55:01;11.60;99.90
52859;DHT22;38721;53.098;6.596;2024-03-17T09:57:33;11.60;99.90
52859;DHT22;38721;53.098;6.596;2024-03-17T10:00:05;11.70;99.90
52859;DHT22;38721;53.098;6.596;2024-03-17T10:02:45;11.50;1.00
52859;DHT22;38721;53.098;6.596;2024-03-17T10:05:22;11.60;99.90
52859;DHT22;38721;53.098;6.596;2024-03-17T10:07:49;11.70;99.90
52859;DHT22;38721;53.098;6.596;2024-03-17T10:10:16;11.50;1.00
52859;DHT22;38721;53.098;6.596;2024-03-17T10:12:42;11.70;1.00
52859;DHT22;38721;53.098;6.596;2024-03-17T10:15:11;11.70;96.60
52859;DHT22;38721;53.098;6.596;2024-03-17T10:17:38;11.50;99.90
52859;DHT22;38721;53.098;6.596;2024-03-17T10:20:18;11.70;1.00
52859;DHT22;38721;53.098;6.596;2024-03-17T10:25:32;11.80;1.00
52859;DHT22;38721;53.098;6.596;2024-03-17T10:27:59;11.60;99.90
52859;DHT22;38721;53.098;6.596;2024-03-17T10:30:25;11.70;1.00
52859;DHT22;38721;53.098;6.596;2024-03-17T10:32:58;11.80;99.90
52859;DHT22;38721;53.098;6.596;2024-03-17T10:35:35;11.60;99.90
52859;DHT22;38721;53.098;6.596;2024-03-17T10:38:05;11.70;1.00
52859;DHT22;38721;53.098;6.596;2024-03-17T10:40:32;11.80;99.90
52859;DHT22;38721;53.098;6.596;2024-03-17T10:43:07;11.80;99.90
52859;DHT22;38721;53.098;6.596;2024-03-17T10:45:33;11.70;99.90
52859;DHT22;38721;53.098;6.596;2024-03-17T10:48:08;11.70;99.90
52859;DHT22;38721;53.098;6.596;2024-03-17T10:50:36;11.70;99.90
52859;DHT22;38721;53.098;6.596;2024-03-17T10:53:07;11.70;99.90
52859;DHT22;38721;53.098;6.596;2024-03-17T10:55:46;11.40;99.90
52859;DHT22;38721;53.098;6.596;2024-03-17T11:01:01;11.80;99.90
52859;DHT22;38721;53.098;6.596;2024-03-17T11:03:34;11.60;99.90
52859;DHT22;38721;53.098;6.596;2024-03-17T11:06:04;11.90;1.00
52859;DHT22;38721;53.098;6.596;2024-03-17T11:08:32;12.00;22.70
52859;DHT22;38721;53.098;6.596;2024-03-17T11:10:58;12.10;26.50
52859;DHT22;38721;53.098;6.596;2024-03-17T11:13:29;12.20;31.40
52859;DHT22;38721;53.098;6.596;2024-03-17T11:15:56;12.10;1.00
52859;DHT22;38721;53.098;6.596;2024-03-17T11:21:04;12.40;99.90
52859;DHT22;38721;53.098;6.596;2024-03-17T11:23:41;12.60;99.90
52859;DHT22;38721;53.098;6.596;2024-03-17T11:26:07;12.80;1.00
52859;DHT22;38721;53.098;6.596;2024-03-17T11:31:50;12.80;96.50
52859;DHT22;38721;53.098;6.596;2024-03-17T11:34:33;12.60;93.80
52859;DHT22;38721;53.098;6.596;2024-03-17T11:37:01;12.50;99.90
52859;DHT22;38721;53.098;6.596;2024-03-17T11:39:51;12.50;1.00
52859;DHT22;38721;53.098;6.596;2024-03-17T11:42:24;12.50;99.90
52859;DHT22;38721;53.098;6.596;2024-03-17T11:45:01;12.30;99.90
52859;DHT22;38721;53.098;6.596;2024-03-17T11:47:40;12.10;99.90
52859;DHT22;38721;53.098;6.596;2024-03-17T11:50:08;12.40;1.00
52859;DHT22;38721;53.098;6.596;2024-03-17T11:52:38;12.50;99.90
52859;DHT22;38721;53.098;6.596;2024-03-17T11:55:15;12.50;1.00
52859;DHT22;38721;53.098;6.596;2024-03-17T11:57:42;12.50;99.90
52859;DHT22;38721;53.098;6.596;2024-03-17T12:00:21;12.40;99.90
52859;DHT22;38721;53.098;6.596;2024-03-17T12:02:49;12.60;99.90
52859;DHT22;38721;53.098;6.596;2024-03-17T12:05:15;12.50;99.90
52859;DHT22;38721;53.098;6.596;2024-03-17T12:07:44;12.60;99.90
52859;DHT22;38721;53.098;6.596;2024-03-17T12:10:13;12.80;99.90
52859;DHT22;38721;53.098;6.596;2024-03-17T12:12:47;13.00;99.90
52859;DHT22;38721;53.098;6.596;2024-03-17T12:15:18;13.20;99.90
52859;DHT22;38721;53.098;6.596;2024-03-17T12:17:45;13.40;99.90
52859;DHT22;38721;53.098;6.596;2024-03-17T12:20:18;13.40;99.90
52859;DHT22;38721;53.098;6.596;2024-03-17T12:22:45;13.10;1.00
52859;DHT22;38721;53.098;6.596;2024-03-17T12:25:21;13.20;1.00
52859;DHT22;38721;53.098;6.596;2024-03-17T12:27:49;13.40;1.00
52859;DHT22;38721;53.098;6.596;2024-03-17T12:30:15;13.40;1.00
52859;DHT22;38721;53.098;6.596;2024-03-17T12:32:43;13.30;1.00
52859;DHT22;38721;53.098;6.596;2024-03-17T12:35:16;13.40;40.40
52859;DHT22;38721;53.098;6.596;2024-03-17T12:37:44;13.40;1.00
52859;DHT22;38721;53.098;6.596;2024-03-17T12:40:21;13.40;1.00
52859;DHT22;38721;53.098;6.596;2024-03-17T12:42:48;13.40;1.00
52859;DHT22;38721;53.098;6.596;2024-03-17T12:45:21;13.30;1.00
52859;DHT22;38721;53.098;6.596;2024-03-17T12:47:49;13.30;1.00
52859;DHT22;38721;53.098;6.596;2024-03-17T12:50:15;13.40;1.00
52859;DHT22;38721;53.098;6.596;2024-03-17T12:52:54;13.10;99.90
52859;DHT22;38721;53.098;6.596;2024-03-17T12:55:21;13.30;1.00
52859;DHT22;38721;53.098;6.596;2024-03-17T12:58:07;13.50;1.00
52859;DHT22;38721;53.098;6.596;2024-03-17T13:01:04;13.30;99.90
52859;DHT22;38721;53.098;6.596;2024-03-17T13:03:33;13.50;99.90
52859;DHT22;38721;53.098;6.596;2024-03-17T13:06:04;13.60;1.00
52859;DHT22;38721;53.098;6.596;2024-03-17T13:08:32;13.60;99.90
52859;DHT22;38721;53.098;6.596;2024-03-17T13:11:01;13.50;99.90
52859;DHT22;38721;53.098;6.596;2024-03-17T13:13:29;13.70;99.90
52859;DHT22;38721;53.098;6.596;2024-03-17T13:15:55;13.40;99.90
52859;DHT22;38721;53.098;6.596;2024-03-17T13:18:21;13.40;99.90
52859;DHT22;38721;53.098;6.596;2024-03-17T13:20:48;13.50;99.90
52859;DHT22;38721;53.098;6.596;2024-03-17T13:23:19;13.50;99.90
52859;DHT22;38721;53.098;6.596;2024-03-17T13:25:47;13.40;99.90
52859;DHT22;38721;53.098;6.596;2024-03-17T13:28:13;13.40;99.90
52859;DHT22;38721;53.098;6.596;2024-03-17T13:30:40;13.80;99.90
52859;DHT22;38721;53.098;6.596;2024-03-17T13:33:07;13.60;99.90
52859;DHT22;38721;53.098;6.596;2024-03-17T13:35:38;13.90;99.90
52859;DHT22;38721;53.098;6.596;2024-03-17T13:38:09;13.90;99.90
52859;DHT22;38721;53.098;6.596;2024-03-17T13:40:37;13.80;99.90
52859;DHT22;38721;53.098;6.596;2024-03-17T13:43:04;13.80;99.90
52859;DHT22;38721;53.098;6.596;2024-03-17T13:45:41;13.50;56.30
52859;DHT22;38721;53.098;6.596;2024-03-17T13:48:08;13.60;1.00
52859;DHT22;38721;53.098;6.596;2024-03-17T13:50:40;13.70;1.00
52859;DHT22;38721;53.098;6.596;2024-03-17T13:53:10;13.60;1.00
52859;DHT22;38721;53.098;6.596;2024-03-17T13:55:36;13.50;1.00
52859;DHT22;38721;53.098;6.596;2024-03-17T13:58:03;13.50;1.00
52859;DHT22;38721;53.098;6.596;2024-03-17T14:00:30;13.40;1.00
52859;DHT22;38721;53.098;6.596;2024-03-17T14:02:57;13.20;99.90
52859;DHT22;38721;53.098;6.596;2024-03-17T14:05:24;13.20;99.90
52859;DHT22;38721;53.098;6.596;2024-03-17T14:07:54;13.20;99.90
52859;DHT22;38721;53.098;6.596;2024-03-17T14:10:22;13.20;99.90
52859;DHT22;38721;53.098;6.596;2024-03-17T14:12:48;13.30;99.90
52859;DHT22;38721;53.098;6.596;2024-03-17T14:15:15;13.20;99.90
52859;DHT22;38721;53.098;6.596;2024-03-17T14:17:45;13.10;99.90
52859;DHT22;38721;53.098;6.596;2024-03-17T14:20:12;13.00;99.90
52859;DHT22;38721;53.098;6.596;2024-03-17T14:22:40;12.90;99.90
52859;DHT22;38721;53.098;6.596;2024-03-17T14:25:12;12.80;99.90
52859;DHT22;38721;53.098;6.596;2024-03-17T14:27:39;13.00;99.90
52859;DHT22;38721;53.098;6.596;2024-03-17T14:30:05;12.90;99.90
52859;DHT22;38721;53.098;6.596;2024-03-17T14:32:33;13.00;99.90
52859;DHT22;38721;53.098;6.596;2024-03-17T14:34:59;12.90;99.90
52859;DHT22;38721;53.098;6.596;2024-03-17T14:37:25;12.80;99.90
52859;DHT22;38721;53.098;6.596;2024-03-17T14:39:52;12.70;24.80
52859;DHT22;38721;53.098;6.596;2024-03-17T14:42:18;12.70;15.30
52859;DHT22;38721;53.098;6.596;2024-03-17T14:44:45;12.70;22.00
52859;DHT22;38721;53.098;6.596;2024-03-17T14:47:13;12.60;8.50
52859;DHT22;38721;53.098;6.596;2024-03-17T14:49:39;12.60;52.90
52859;DHT22;38721;53.098;6.596;2024-03-17T14:52:05;12.50;11.40
52859;DHT22;38721;53.098;6.596;2024-03-17T14:54:31;12.40;16.50
52859;DHT22;38721;53.098;6.596;2024-03-17T14:56:57;12.30;1.00
52859;DHT22;38721;53.098;6.596;2024-03-17T14:59:23;12.30;1.00
52859;DHT22;38721;53.098;6.596;2024-03-17T15:01:49;12.30;1.00
52859;DHT22;38721;53.098;6.596;2024-03-17T15:04:15;12.20;4.70
52859;DHT22;38721;53.098;6.596;2024-03-17T15:06:41;12.20;18.50
52859;DHT22;38721;53.098;6.596;2024-03-17T15:09:12;12.30;99.90
52859;DHT22;38721;53.098;6.596;2024-03-17T15:11:38;12.20;45.90
52859;DHT22;38721;53.098;6.596;2024-03-17T15:14:04;12.00;1.00
52859;DHT22;38721;53.098;6.596;2024-03-17T15:16:36;12.00;1.00
52859;DHT22;38721;53.098;6.596;2024-03-17T15:19:02;12.10;34.80
52859;DHT22;38721;53.098;6.596;2024-03-17T15:21:28;12.10;1.00
52859;DHT22;38721;53.098;6.596;2024-03-17T15:23:54;12.10;1.00
52859;DHT22;38721;53.098;6.596;2024-03-17T15:26:21;12.00;1.00
52859;DHT22;38721;53.098;6.596;2024-03-17T15:28:47;12.00;1.00
52859;DHT22;38721;53.098;6.596;2024-03-17T15:31:13;12.00;1.00
52859;DHT22;38721;53.098;6.596;2024-03-17T15:33:40;12.00;1.00
52859;DHT22;38721;53.098;6.596;2024-03-17T15:36:07;12.00;1.00
52859;DHT22;38721;53.098;6.596;2024-03-17T15:38:35;12.00;1.00
52859;DHT22;38721;53.098;6.596;2024-03-17T15:41:05;12.10;1.00
52859;DHT22;38721;53.098;6.596;2024-03-17T15:43:35;11.90;1.00
52859;DHT22;38721;53.098;6.596;2024-03-17T15:46:01;11.90;99.90
52859;DHT22;38721;53.098;6.596;2024-03-17T15:48:27;11.90;99.90
52859;DHT22;38721;53.098;6.596;2024-03-17T15:50:59;11.90;99.90
52859;DHT22;38721;53.098;6.596;2024-03-17T15:53:25;11.90;1.00
52859;DHT22;38721;53.098;6.596;2024-03-17T15:55:58;11.80;99.90
52859;DHT22;38721;53.098;6.596;2024-03-17T15:58:25;11.80;1.00